METAR ET TAF INFORMATION
METAR FOR EKVG
ADDS - METARS form results

(1503 UTC 20 May 2019)
Data provider http://aviationweather.gov/metar/data/
 
METAR text: EKVG 201450Z AUTO 17003KT 9999NDV BKN008/// 11/09 Q1014 RMK BKN011/// WIND SKEID 29004KT 260V320
Conditions at: EKVG (SORVAAG/VAGAR , DK) observed 1450 UTC 20 May 2019
Temperature: 11.0°C (52°F)
Dewpoint: 9.0°C (48°F) [RH = 87%]
Pressure (altimeter): 29.94 inches Hg (1014.0 mb)
Winds: from the S (170 degrees) at 3 MPH (3 knots; 1.5 m/s)
Visibility: missing
Ceiling: 800 feet AGL
Clouds: broken clouds at 800 feet AGL
Weather: no significant weather observed at this time

METAR text: EKVG 201420Z AUTO 18005KT 140V210 9999NDV BKN009/// 11/08 Q1014 RMK BKN013/// BKN030/// WIND SKEID VRB02KT
Conditions at: EKVG (SORVAAG/VAGAR , DK) observed 1420 UTC 20 May 2019
Temperature: 11.0°C (52°F)
Dewpoint: 8.0°C (46°F) [RH = 82%]
Pressure (altimeter): 29.94 inches Hg (1014.0 mb)
Winds: from the S (180 degrees) at 6 MPH (5 knots; 2.6 m/s)
Visibility: missing
Ceiling: 900 feet AGL
Clouds: broken clouds at 900 feet AGL
Weather: no significant weather observed at this time

Forecast for: EKVG (SORVAAG/VAGAR , DK)
Text: TAF EKVG 201426Z 2015/2020 14005KT 9999 BKN015
Forecast period: 1500 to 2000 UTC 20 May 2019
Forecast type: FROM: standard forecast or significant change
Winds: from the SE (140 degrees) at 6 MPH (5 knots; 2.6 m/s)
Visibility: 6 or more miles 10+ km)
Ceiling: 1500 feet AGL
Clouds: broken clouds at 1500 feet AGL
Weather: no significant weather forecast for this period
Text: TEMPO 2015/2018 BKN006
Forecast period: 1500 to 1800 UTC 20 May 2019
Forecast type: TEMPORARY: The following changes expected for less than half the time period
Visibility: missing
Ceiling: 600 feet AGL
Clouds: broken clouds at 600 feet AGL
Weather: no significant weather forecast for this period
Text: TEMPO 2018/2020 1500 -RADZ BR BKN002
Forecast period: 1800 to 2000 UTC 20 May 2019
Forecast type: TEMPORARY: The following changes expected for less than half the time period
Visibility: 0.93 miles (1.50 km)
Ceiling: 200 feet AGL
Clouds: broken clouds at 200 feet AGL
Weather: -RA -DZ BR  (light rain, light drizzle, mist)

 AÉROPORT DE AÉROPORT

 INFORMATIONS DE PISTE
Piste 13 Longueur de la piste 5902 ft Largeur de la piste 98 ft
Élévation de la piste 268 ft Seuil de la piste déplacés 0 ft Runway heading 118
Piste 31 Longueur de la piste 5902 ft Largeur de la piste 98 ft
Élévation de la piste 252 ft Seuil de la piste déplacés 0 ft Runway heading 298

 AÉROPORT FRÉQUENCES
Type AFIS Nom AFIS Féquence 124.85 MHZ

 SIDA DE NAVIGATION
Type NDB Nom Myggenes Féquence 337 KHZ
Type NDB Nom Nolso Féquence 404 KHZ
Type NDB Nom Vagar Féquence 348 KHZ



Powered by Virtual Airlines Manager [v2.6.2]